Time;durP1;ratioP1;P1;durP2;ratioP2;P2;SDS_P1;SDS_P2;PMS_P1;PMS_P2;Temp;Humidity;BMP_temperature;BMP_pressure;BME280_temperature;BME280_humidity;BME280_pressure;Samples;Min_cycle;Max_cycle;Signal;HPM_P1;HPM_P2
2020/12/20 00:01:19;;;;;;;11.85;5.90;;;;;;;;;;5007729;28;20513;-82
2020/12/20 00:04:28;;;;;;;11.23;5.70;;;;;;;;;;5001343;28;20050;-81
2020/12/20 00:07:35;;;;;;;12.30;5.68;;;;;;;;;;5003434;28;20057;-81
2020/12/20 00:10:27;;;;;;;13.10;5.43;;;;;;;;;;5005523;28;20128;-83
2020/12/20 00:31:15;;;;;;;11.15;5.63;;;;;;;;;;4901298;29;20119;-82
2020/12/20 00:34:11;;;;;;;14.05;6.10;;;;;;;;;;4899517;29;20053;-81
2020/12/20 00:36:58;;;;;;;10.98;5.45;;;;;;;;;;4890942;29;20055;-81
2020/12/20 00:40:19;;;;;;;;;;;;;;;;;;;;;
2020/12/20 00:43:22;;;;;;;10.48;5.53;;;;;;;;;;4901858;29;20032;-78
2020/12/20 00:46:14;;;;;;;11.70;5.60;;;;;;;;;;4902191;29;20055;-81
2020/12/20 00:48:59;;;;;;;11.25;5.50;;;;;;;;;;4880869;29;20052;-79
2020/12/20 00:52:12;;;;;;;10.32;5.18;;;;;;;;;;4867960;29;20053;-81
2020/12/20 00:55:34;;;;;;;11.70;5.30;;;;;;;;;;4921358;29;20072;-81
2020/12/20 00:58:16;;;;;;;11.82;5.20;;;;;;;;;;4917201;29;20046;-80
2020/12/20 01:01:24;;;;;;;10.68;5.22;;;;;;;;;;4915799;29;20084;-80
2020/12/20 01:04:49;;;;;;;10.18;4.80;;;;;;;;;;4919005;29;20067;-81
2020/12/20 01:11:40;;;;;;;9.07;4.63;;;;;;;;;;4880020;29;20106;-84
2020/12/20 01:15:08;;;;;;;10.18;5.25;;;;;;;;;;4818898;29;20512;-81
2020/12/20 01:18:08;;;;;;;9.20;4.53;;;;;;;;;;4821838;29;20114;-80
2020/12/20 01:21:05;;;;;;;9.70;4.63;;;;;;;;;;4843178;29;20053;-80
2020/12/20 01:24:04;;;;;;;11.20;5.10;;;;;;;;;;4913591;29;20067;-83
2020/12/20 01:27:19;;;;;;;11.07;4.97;;;;;;;;;;4921733;29;20070;-80
2020/12/20 01:30:52;;;;;;;9.82;4.93;;;;;;;;;;4864903;29;20052;-81
2020/12/20 01:33:36;;;;;;;13.20;5.40;;;;;;;;;;4871633;29;20059;-83
2020/12/20 01:40:24;;;;;;;10.52;5.72;;;;;;;;;;4905116;29;20111;-84
2020/12/20 01:46:54;;;;;;;13.75;6.18;;;;;;;;;;4978585;28;20130;-81
2020/12/20 01:50:13;;;;;;;10.57;5.00;;;;;;;;;;4991342;28;20061;-81
2020/12/20 01:53:21;;;;;;;11.52;5.50;;;;;;;;;;4952115;28;20046;-81
2020/12/20 01:56:54;;;;;;;10.88;5.63;;;;;;;;;;4901867;29;20044;-81
2020/12/20 01:59:38;;;;;;;;;;;;;;;;;;;;;
2020/12/20 02:02:26;;;;;;;;;;;;;;;;;;;;;
2020/12/20 02:06:02;;;;;;;10.52;5.72;;;;;;;;;;4956401;28;20054;-81
2020/12/20 02:09:20;;;;;;;12.02;5.63;;;;;;;;;;4952637;29;20138;-81
2020/12/20 02:12:36;;;;;;;12.68;6.15;;;;;;;;;;4955667;29;20633;-81
2020/12/20 02:15:28;;;;;;;11.18;6.22;;;;;;;;;;4963080;29;20059;-83
2020/12/20 02:18:39;;;;;;;14.10;6.68;;;;;;;;;;4961539;29;20050;-81
2020/12/20 02:22:06;;;;;;;11.65;6.05;;;;;;;;;;4948351;29;20031;-81
2020/12/20 02:25:49;;;;;;;;;;;;;;;;;;;;;
2020/12/20 02:33:27;;;;;;;14.65;5.95;;;;;;;;;;4936566;29;20382;-82
2020/12/20 02:40:06;;;;;;;13.05;6.22;;;;;;;;;;4907747;29;20044;-82
2020/12/20 02:43:14;;;;;;;13.85;6.13;;;;;;;;;;4908458;29;20050;-80
2020/12/20 02:46:17;;;;;;;10.10;5.75;;;;;;;;;;4969622;28;20047;-80
2020/12/20 02:49:36;;;;;;;;;;;;;;;;;;;;;
2020/12/20 02:52:52;;;;;;;11.68;5.50;;;;;;;;;;4958785;29;20066;-82
2020/12/20 02:56:26;;;;;;;10.45;5.50;;;;;;;;;;4907396;29;20052;-79
2020/12/20 02:59:54;;;;;;;11.25;5.28;;;;;;;;;;4909522;29;20127;-80
2020/12/20 03:02:54;;;;;;;10.23;5.50;;;;;;;;;;4855142;29;20060;-81
2020/12/20 03:08:28;;;;;;;10.40;5.28;;;;;;;;;;4847528;29;20050;-81
2020/12/20 03:11:57;;;;;;;10.75;5.40;;;;;;;;;;4841107;29;20062;-80
2020/12/20 03:15:48;;;;;;;;;;;;;;;;;;;;;
2020/12/20 03:19:14;;;;;;;10.23;5.22;;;;;;;;;;4787364;30;20039;-81
2020/12/20 03:22:31;;;;;;;10.75;5.40;;;;;;;;;;4692118;30;20515;-80
2020/12/20 03:25:58;;;;;;;11.77;5.25;;;;;;;;;;4693159;30;20050;-83
2020/12/20 03:29:17;;;;;;;13.35;6.00;;;;;;;;;;4714575;30;20597;-81
2020/12/20 03:32:31;;;;;;;9.38;5.20;;;;;;;;;;4803889;29;20113;-79
2020/12/20 03:35:26;;;;;;;12.65;5.95;;;;;;;;;;4896724;29;20061;-79
2020/12/20 03:38:44;;;;;;;11.75;5.45;;;;;;;;;;4892331;29;20443;-79
2020/12/20 03:45:06;;;;;;;10.70;5.40;;;;;;;;;;4957898;28;20079;-79
2020/12/20 03:48:25;;;;;;;10.18;5.32;;;;;;;;;;4960152;29;20504;-81
2020/12/20 03:55:01;;;;;;;10.15;5.28;;;;;;;;;;4902854;29;20076;-81
2020/12/20 03:57:45;;;;;;;11.57;5.18;;;;;;;;;;4879547;29;20052;-81
2020/12/20 04:00:50;;;;;;;9.82;5.10;;;;;;;;;;4893323;29;20067;-81
2020/12/20 04:04:07;;;;;;;;;;;;;;;;;;;;;
2020/12/20 04:07:16;;;;;;;10.48;5.07;;;;;;;;;;4890659;29;20048;-81
2020/12/20 04:10:27;;;;;;;11.48;5.05;;;;;;;;;;4905392;29;20559;-81
2020/12/20 04:13:17;;;;;;;9.07;4.75;;;;;;;;;;4906285;29;20091;-82
2020/12/20 04:16:15;;;;;;;8.38;4.57;;;;;;;;;;4813739;29;20085;-82
2020/12/20 04:20:09;;;;;;;8.55;4.22;;;;;;;;;;4815665;29;20047;-80
2020/12/20 04:23:08;;;;;;;9.20;4.63;;;;;;;;;;4816481;29;20050;-81
2020/12/20 04:29:55;;;;;;;8.23;4.38;;;;;;;;;;4804660;29;20051;-83
2020/12/20 04:33:02;;;;;;;8.73;4.35;;;;;;;;;;4763622;30;20540;-80
2020/12/20 04:37:00;;;;;;;;;;;;;;;;;;;;;
2020/12/20 04:39:56;;;;;;;9.85;4.40;;;;;;;;;;4731296;30;20143;-81
2020/12/20 04:47:10;;;;;;;7.22;4.50;;;;;;;;;;4842656;29;20042;-81
2020/12/20 04:50:16;;;;;;;8.55;4.75;;;;;;;;;;4801449;29;20046;-80
2020/12/20 04:53:12;;;;;;;8.15;4.63;;;;;;;;;;4816319;29;20056;-83
2020/12/20 04:56:03;;;;;;;9.63;4.82;;;;;;;;;;4812384;29;20051;-81
2020/12/20 04:59:10;;;;;;;9.05;4.72;;;;;;;;;;4761211;30;20134;-79
2020/12/20 05:02:30;;;;;;;9.18;4.38;;;;;;;;;;4742568;30;20639;-78
2020/12/20 05:05:39;;;;;;;8.98;4.32;;;;;;;;;;4783706;29;20171;-79
2020/12/20 05:09:03;;;;;;;10.00;4.68;;;;;;;;;;4845013;29;20083;-81
2020/12/20 05:12:32;;;;;;;10.40;4.88;;;;;;;;;;4883677;29;20060;-80
2020/12/20 05:15:20;;;;;;;8.35;4.25;;;;;;;;;;4883515;29;20072;-81
2020/12/20 05:18:51;;;;;;;8.57;4.35;;;;;;;;;;4865577;29;20541;-80
2020/12/20 05:22:25;;;;;;;7.72;4.43;;;;;;;;;;4807958;29;20049;-81
2020/12/20 05:25:40;;;;;;;9.40;4.70;;;;;;;;;;4867306;29;20056;-80
2020/12/20 05:28:41;;;;;;;10.50;4.70;;;;;;;;;;4855407;29;20106;-82
2020/12/20 05:35:05;;;;;;;9.93;5.13;;;;;;;;;;4798902;29;20046;-82
2020/12/20 05:37:49;;;;;;;8.25;4.53;;;;;;;;;;4834194;29;20066;-81
2020/12/20 05:40:35;;;;;;;9.00;4.65;;;;;;;;;;4836517;29;20062;-83
2020/12/20 05:43:28;;;;;;;;;;;;;;;;;;4877379;29;20545;-81
2020/12/20 05:46:35;;;;;;;9.43;4.65;;;;;;;;;;4896699;29;20554;-82
2020/12/20 05:49:29;;;;;;;9.88;4.72;;;;;;;;;;4866176;29;20057;-80
2020/12/20 05:52:29;;;;;;;;;;;;;;;;;;;;;
2020/12/20 05:58:51;;;;;;;;;;;;;;;;;;;;;
2020/12/20 06:01:27;;;;;;;9.60;5.45;;;;;;;;;;4847319;29;20053;-83
2020/12/20 06:04:25;;;;;;;9.60;5.38;;;;;;;;;;4844802;29;20060;-81
2020/12/20 06:06:57;;;;;;;11.40;5.53;;;;;;;;;;4844141;29;20042;-78
2020/12/20 06:09:40;;;;;;;10.20;5.50;;;;;;;;;;4871707;29;20052;-80
2020/12/20 06:12:48;;;;;;;11.82;5.15;;;;;;;;;;4846880;29;20571;-81
2020/12/20 06:16:17;;;;;;;;;;;;;;;;;;;;;
2020/12/20 06:19:50;;;;;;;10.10;5.38;;;;;;;;;;4912054;29;20099;-80
2020/12/20 06:22:37;;;;;;;9.20;5.03;;;;;;;;;;4893093;28;20161;-80
2020/12/20 06:25:42;;;;;;;10.95;5.00;;;;;;;;;;4950052;23;20137;-81
2020/12/20 06:28:13;;;;;;;10.80;5.30;;;;;;;;;;5018929;28;20048;-81
2020/12/20 06:30:40;;;;;;;9.55;5.60;;;;;;;;;;5018885;28;20081;-79
2020/12/20 06:33:09;;;;;;;9.70;5.07;;;;;;;;;;5018438;28;20050;-81
2020/12/20 06:35:36;;;;;;;10.35;5.57;;;;;;;;;;5019120;28;20088;-81
2020/12/20 06:38:02;;;;;;;9.07;5.07;;;;;;;;;;5016694;28;20531;-79
2020/12/20 06:40:28;;;;;;;10.95;5.68;;;;;;;;;;5018583;28;20052;-81
2020/12/20 06:42:57;;;;;;;7.78;4.65;;;;;;;;;;5020177;28;20046;-80
2020/12/20 06:45:23;;;;;;;9.63;5.18;;;;;;;;;;5017819;28;20046;-80
2020/12/20 06:47:50;;;;;;;8.48;4.88;;;;;;;;;;5018418;28;20044;-79
2020/12/20 06:50:35;;;;;;;8.85;5.15;;;;;;;;;;5016825;28;20046;-79
2020/12/20 06:53:06;;;;;;;9.68;5.40;;;;;;;;;;4998674;28;20042;-81
2020/12/20 06:55:32;;;;;;;10.90;5.70;;;;;;;;;;4981290;28;20042;-81
2020/12/20 06:58:01;;;;;;;9.98;5.40;;;;;;;;;;4987695;28;20073;-81
2020/12/20 07:00:41;;;;;;;9.75;4.75;;;;;;;;;;5011653;28;20030;-78
2020/12/20 07:03:08;;;;;;;13.45;5.30;;;;;;;;;;5028658;28;20054;-82
2020/12/20 07:05:41;;;;;;;9.30;4.70;;;;;;;;;;5028111;28;20116;-79
2020/12/20 07:08:21;;;;;;;8.95;5.20;;;;;;;;;;5007887;28;20038;-80
2020/12/20 07:10:48;;;;;;;11.35;5.72;;;;;;;;;;5019960;28;20085;-79
2020/12/20 07:13:16;;;;;;;11.45;5.03;;;;;;;;;;5027853;28;20042;-78
2020/12/20 07:15:43;;;;;;;7.70;4.28;;;;;;;;;;5022763;28;20065;-80
2020/12/20 07:18:09;;;;;;;8.88;4.90;;;;;;;;;;5023510;28;20050;-79
2020/12/20 07:20:35;;;;;;;9.95;5.03;;;;;;;;;;5026894;28;20069;-81
2020/12/20 07:23:01;;;;;;;9.43;5.13;;;;;;;;;;5004064;28;20108;-81
2020/12/20 07:25:30;;;;;;;8.95;4.72;;;;;;;;;;5019380;28;20331;-84
2020/12/20 07:27:56;;;;;;;11.15;5.15;;;;;;;;;;4998814;28;20042;-82
2020/12/20 07:30:23;;;;;;;9.15;5.32;;;;;;;;;;5010108;28;20513;-82
2020/12/20 07:32:49;;;;;;;10.63;5.20;;;;;;;;;;4989217;28;20092;-80
2020/12/20 07:35:15;;;;;;;11.23;5.85;;;;;;;;;;5014778;28;20048;-80
2020/12/20 07:37:53;;;;;;;10.82;5.65;;;;;;;;;;5021505;28;20068;-78
2020/12/20 07:40:20;;;;;;;10.63;5.60;;;;;;;;;;5001829;28;20109;-79
2020/12/20 07:42:47;;;;;;;12.02;5.65;;;;;;;;;;4984558;28;20045;-80
2020/12/20 07:45:13;;;;;;;9.93;5.32;;;;;;;;;;5001737;28;20047;-77
2020/12/20 07:47:49;;;;;;;11.35;6.22;;;;;;;;;;5002397;28;20042;-81
2020/12/20 07:50:22;;;;;;;10.90;5.55;;;;;;;;;;5002519;28;20054;-79
2020/12/20 07:52:48;;;;;;;10.48;5.65;;;;;;;;;;5001708;28;20054;-80
2020/12/20 07:55:15;;;;;;;9.90;5.57;;;;;;;;;;4982950;28;20046;-79
2020/12/20 07:57:46;;;;;;;12.02;6.10;;;;;;;;;;5001973;28;20042;-79
2020/12/20 08:00:14;;;;;;;11.68;5.68;;;;;;;;;;5003445;28;20113;-82
2020/12/20 08:02:43;;;;;;;11.18;5.28;;;;;;;;;;4985114;28;20069;-79
2020/12/20 08:05:11;;;;;;;10.10;5.70;;;;;;;;;;4982838;28;20069;-81
2020/12/20 08:07:39;;;;;;;11.88;6.05;;;;;;;;;;4983507;28;20054;-81
2020/12/20 08:10:06;;;;;;;14.13;5.72;;;;;;;;;;4986262;28;20045;-79
2020/12/20 08:12:33;;;;;;;10.85;5.40;;;;;;;;;;4988836;28;20050;-80
2020/12/20 08:14:59;;;;;;;10.32;5.75;;;;;;;;;;4988926;28;20425;-80
2020/12/20 08:17:26;;;;;;;12.85;5.45;;;;;;;;;;5006673;28;20061;-82
2020/12/20 08:19:53;;;;;;;9.05;5.18;;;;;;;;;;5005883;28;20057;-82
2020/12/20 08:22:21;;;;;;;10.30;6.05;;;;;;;;;;5017723;28;20041;-79
2020/12/20 08:24:48;;;;;;;9.88;5.28;;;;;;;;;;5037773;28;20117;-80
2020/12/20 08:27:24;;;;;;;9.32;4.95;;;;;;;;;;5004827;28;20052;-81
2020/12/20 08:29:52;;;;;;;8.68;5.00;;;;;;;;;;5030663;28;20075;-81
2020/12/20 08:32:19;;;;;;;14.43;5.88;;;;;;;;;;5033804;28;20073;-84
2020/12/20 08:34:45;;;;;;;10.88;5.40;;;;;;;;;;5028654;28;20049;-81
2020/12/20 08:37:13;;;;;;;12.60;6.30;;;;;;;;;;5042336;28;20057;-80
2020/12/20 08:39:39;;;;;;;9.90;5.40;;;;;;;;;;5028772;28;20088;-80
2020/12/20 08:42:06;;;;;;;9.15;4.90;;;;;;;;;;5004214;28;20434;-80
2020/12/20 08:44:33;;;;;;;9.23;5.45;;;;;;;;;;5003523;28;20124;-80
2020/12/20 08:47:06;;;;;;;10.95;5.40;;;;;;;;;;5004469;28;20042;-80
2020/12/20 08:49:35;;;;;;;9.82;5.03;;;;;;;;;;5022789;28;20055;-81
2020/12/20 08:52:11;;;;;;;8.85;5.10;;;;;;;;;;5008259;28;20068;-80
2020/12/20 08:54:38;;;;;;;11.23;5.10;;;;;;;;;;5006734;28;20134;-80
2020/12/20 08:57:06;;;;;;;11.20;6.00;;;;;;;;;;4988580;28;20056;-81
2020/12/20 08:59:34;;;;;;;9.77;5.47;;;;;;;;;;5010856;28;20041;-82
2020/12/20 09:02:01;;;;;;;8.60;4.63;;;;;;;;;;5020418;28;20484;-80
2020/12/20 09:04:29;;;;;;;8.77;4.95;;;;;;;;;;5024468;28;20041;-81
2020/12/20 09:06:58;;;;;;;7.90;4.45;;;;;;;;;;4986598;28;20042;-79
2020/12/20 09:09:25;;;;;;;11.27;4.95;;;;;;;;;;5007365;28;20042;-79
2020/12/20 09:11:52;;;;;;;8.48;4.82;;;;;;;;;;4994610;28;20061;-80
2020/12/20 09:14:18;;;;;;;9.57;5.03;;;;;;;;;;5000626;28;20044;-82
2020/12/20 09:16:47;;;;;;;10.75;4.93;;;;;;;;;;4998012;28;20034;-81
2020/12/20 09:19:13;;;;;;;7.68;4.65;;;;;;;;;;4992480;28;20046;-82
2020/12/20 09:21:40;;;;;;;9.48;5.30;;;;;;;;;;5019124;28;20065;-82
2020/12/20 09:24:09;;;;;;;8.98;5.10;;;;;;;;;;5019445;28;20418;-80
2020/12/20 09:26:36;;;;;;;9.07;4.78;;;;;;;;;;5006630;28;20049;-81
2020/12/20 09:29:06;;;;;;;9.82;5.10;;;;;;;;;;5015866;28;20402;-82
2020/12/20 09:31:33;;;;;;;11.18;6.00;;;;;;;;;;5005410;28;20038;-82
2020/12/20 09:34:02;;;;;;;10.80;5.32;;;;;;;;;;5004462;28;20489;-79
2020/12/20 09:36:29;;;;;;;10.95;5.20;;;;;;;;;;5007958;28;20038;-79
2020/12/20 09:38:57;;;;;;;10.45;5.13;;;;;;;;;;5021817;28;20038;-76
2020/12/20 09:41:24;;;;;;;7.60;4.75;;;;;;;;;;5019720;28;20042;-79
2020/12/20 09:43:52;;;;;;;8.25;4.80;;;;;;;;;;5023980;28;20042;-79
2020/12/20 09:46:20;;;;;;;9.75;5.40;;;;;;;;;;5003042;28;20411;-79
2020/12/20 09:48:49;;;;;;;9.63;5.28;;;;;;;;;;5020548;28;20409;-80
2020/12/20 09:51:16;;;;;;;8.32;5.13;;;;;;;;;;5019167;28;20045;-79
2020/12/20 09:53:43;;;;;;;9.23;4.95;;;;;;;;;;5019962;28;20049;-79
2020/12/20 09:56:12;;;;;;;8.10;4.43;;;;;;;;;;5015949;28;20076;-81
2020/12/20 09:58:39;;;;;;;9.80;5.03;;;;;;;;;;5016546;28;20322;-78
2020/12/20 10:01:05;;;;;;;12.48;5.78;;;;;;;;;;5016125;28;20073;-79
2020/12/20 10:03:31;;;;;;;10.20;5.03;;;;;;;;;;5016775;28;20040;-79
2020/12/20 10:05:58;;;;;;;9.98;5.03;;;;;;;;;;5020053;28;20076;-79
2020/12/20 10:08:25;;;;;;;10.85;5.82;;;;;;;;;;5017403;28;20046;-78
2020/12/20 10:10:52;;;;;;;11.30;5.97;;;;;;;;;;5018327;28;20077;-80
2020/12/20 10:13:18;;;;;;;11.05;5.60;;;;;;;;;;5007729;28;20069;-80
2020/12/20 10:15:45;;;;;;;15.23;6.55;;;;;;;;;;4991349;28;20052;-77
2020/12/20 10:18:12;;;;;;;9.95;5.43;;;;;;;;;;5016269;28;20049;-80
2020/12/20 10:20:38;;;;;;;9.52;5.32;;;;;;;;;;5016780;28;20506;-79
2020/12/20 10:23:06;;;;;;;10.15;4.85;;;;;;;;;;4997037;28;20044;-80
2020/12/20 10:25:32;;;;;;;8.32;4.70;;;;;;;;;;5006867;28;20057;-78
2020/12/20 10:27:58;;;;;;;9.88;5.28;;;;;;;;;;4987182;28;20056;-76
2020/12/20 10:30:25;;;;;;;11.45;4.60;;;;;;;;;;4990046;28;20104;-79
2020/12/20 10:32:54;;;;;;;8.20;4.97;;;;;;;;;;4980984;28;20070;-79
2020/12/20 10:35:23;;;;;;;7.97;4.82;;;;;;;;;;5002403;28;20056;-78
2020/12/20 10:37:52;;;;;;;10.02;5.57;;;;;;;;;;5021616;28;20051;-79
2020/12/20 10:40:19;;;;;;;11.45;5.95;;;;;;;;;;5038204;28;20068;-79
2020/12/20 10:42:47;;;;;;;11.63;5.95;;;;;;;;;;5023281;28;20040;-81
2020/12/20 10:45:13;;;;;;;15.63;6.95;;;;;;;;;;5009324;28;20046;-79
2020/12/20 10:47:40;;;;;;;13.65;6.47;;;;;;;;;;5004954;28;20068;-78
2020/12/20 10:50:09;;;;;;;15.10;6.97;;;;;;;;;;5009530;28;20045;-79
2020/12/20 10:52:36;;;;;;;9.18;5.35;;;;;;;;;;5017732;28;20049;-78
2020/12/20 10:55:05;;;;;;;9.13;4.95;;;;;;;;;;5004137;28;20046;-80
2020/12/20 10:57:36;;;;;;;10.35;5.75;;;;;;;;;;4984083;28;20051;-78
2020/12/20 11:00:07;;;;;;;10.50;6.00;;;;;;;;;;4986307;28;20046;-77
2020/12/20 11:02:35;;;;;;;10.90;6.03;;;;;;;;;;5004152;28;20416;-79
2020/12/20 11:05:02;;;;;;;8.90;5.30;;;;;;;;;;5023166;28;20038;-79
2020/12/20 11:07:34;;;;;;;11.00;5.30;;;;;;;;;;4996777;28;20077;-79
2020/12/20 11:10:02;;;;;;;11.15;5.95;;;;;;;;;;4968591;28;20081;-79
2020/12/20 11:12:31;;;;;;;9.50;5.53;;;;;;;;;;4973544;28;20523;-80
2020/12/20 11:14:58;;;;;;;9.60;5.57;;;;;;;;;;5005776;28;20050;-77
2020/12/20 11:17:26;;;;;;;10.68;5.50;;;;;;;;;;5004214;28;20045;-80
2020/12/20 11:19:54;;;;;;;9.95;5.80;;;;;;;;;;4996794;28;20048;-78
2020/12/20 11:22:23;;;;;;;12.55;6.40;;;;;;;;;;5001539;28;20065;-79
2020/12/20 11:24:51;;;;;;;10.70;6.03;;;;;;;;;;5001156;28;20052;-79
2020/12/20 11:27:17;;;;;;;9.40;5.82;;;;;;;;;;4958748;28;20042;-77
2020/12/20 11:29:46;;;;;;;12.30;6.78;;;;;;;;;;4990209;28;20034;-79
2020/12/20 11:32:16;;;;;;;9.35;5.63;;;;;;;;;;5002171;28;20057;-79
2020/12/20 11:34:53;;;;;;;9.32;5.68;;;;;;;;;;5018896;28;20474;-79
2020/12/20 11:37:20;;;;;;;10.05;5.70;;;;;;;;;;4986445;28;20265;-80
2020/12/20 11:39:47;;;;;;;10.20;5.95;;;;;;;;;;4985796;28;20406;-81
2020/12/20 11:42:18;;;;;;;11.93;6.03;;;;;;;;;;4999651;28;20053;-81
2020/12/20 11:44:47;;;;;;;11.35;5.97;;;;;;;;;;5016113;28;20041;-81
2020/12/20 11:47:17;;;;;;;9.82;5.90;;;;;;;;;;4998460;28;20425;-83
2020/12/20 11:49:53;;;;;;;10.95;6.07;;;;;;;;;;5002009;28;20040;-78
2020/12/20 11:52:26;;;;;;;11.95;6.00;;;;;;;;;;4983606;28;20112;-79
2020/12/20 11:54:53;;;;;;;9.63;5.68;;;;;;;;;;5000429;28;20057;-78
2020/12/20 11:57:23;;;;;;;11.13;6.20;;;;;;;;;;5001172;28;20504;-79
2020/12/20 11:59:50;;;;;;;11.02;6.05;;;;;;;;;;4995392;28;20092;-80
2020/12/20 12:02:17;;;;;;;9.40;5.80;;;;;;;;;;5002491;28;20048;-79
2020/12/20 12:04:44;;;;;;;10.05;6.05;;;;;;;;;;4983401;28;20048;-81
2020/12/20 12:07:10;;;;;;;8.50;5.10;;;;;;;;;;4983517;28;20048;-81
2020/12/20 12:09:38;;;;;;;9.07;5.57;;;;;;;;;;5000530;28;20046;-80
2020/12/20 12:12:05;;;;;;;10.32;5.63;;;;;;;;;;4999755;28;20046;-81
2020/12/20 12:14:33;;;;;;;9.27;5.50;;;;;;;;;;5018078;28;20061;-80
2020/12/20 12:17:01;;;;;;;8.80;5.00;;;;;;;;;;5019779;28;20056;-81
2020/12/20 12:19:27;;;;;;;10.30;5.28;;;;;;;;;;4991665;28;20149;-81
2020/12/20 12:21:54;;;;;;;9.20;5.53;;;;;;;;;;4989582;28;20042;-79
2020/12/20 12:24:20;;;;;;;8.43;5.35;;;;;;;;;;4996388;28;20034;-78
2020/12/20 12:26:56;;;;;;;8.93;5.38;;;;;;;;;;4977293;23;20141;-81
2020/12/20 12:29:24;;;;;;;8.00;5.35;;;;;;;;;;4997006;28;20066;-81
2020/12/20 12:32:16;;;;;;;9.10;5.10;;;;;;;;;;4961524;28;20121;-78
2020/12/20 12:34:45;;;;;;;10.38;5.47;;;;;;;;;;4983384;28;20039;-80
2020/12/20 12:37:22;;;;;;;9.88;5.45;;;;;;;;;;4971764;28;20058;-80
2020/12/20 12:39:48;;;;;;;6.90;4.88;;;;;;;;;;4960721;28;20066;-79
2020/12/20 12:42:20;;;;;;;8.80;5.28;;;;;;;;;;4944867;28;20096;-80
2020/12/20 12:44:54;;;;;;;9.68;5.07;;;;;;;;;;4969932;28;20041;-80
2020/12/20 12:47:25;;;;;;;8.57;5.17;;;;;;;;;;4961175;28;20426;-81
2020/12/20 12:50:01;;;;;;;8.77;5.68;;;;;;;;;;4975290;28;20507;-78
2020/12/20 12:52:55;;;;;;;8.38;5.10;;;;;;;;;;4955953;28;20165;-78
2020/12/20 12:55:29;;;;;;;9.85;5.22;;;;;;;;;;4973986;28;20043;-80
2020/12/20 12:57:58;;;;;;;9.77;5.45;;;;;;;;;;4974182;28;20104;-80
2020/12/20 13:00:25;;;;;;;8.57;5.22;;;;;;;;;;4971870;28;20121;-80
2020/12/20 13:03:05;;;;;;;8.20;5.25;;;;;;;;;;4957756;28;20059;-79
2020/12/20 13:05:40;;;;;;;8.68;5.00;;;;;;;;;;4957363;28;20042;-78
2020/12/20 13:08:38;;;;;;;8.40;5.20;;;;;;;;;;4943168;29;20363;-79
2020/12/20 13:11:34;;;;;;;8.80;5.07;;;;;;;;;;4910798;29;20052;-78
2020/12/20 13:14:04;;;;;;;9.80;5.53;;;;;;;;;;4896143;29;20084;-79
2020/12/20 13:16:34;;;;;;;8.68;5.25;;;;;;;;;;4880471;29;20121;-80
2020/12/20 13:19:04;;;;;;;12.15;5.95;;;;;;;;;;4914889;29;20059;-81
2020/12/20 13:21:33;;;;;;;8.68;5.43;;;;;;;;;;4913940;29;20048;-81
2020/12/20 13:24:18;;;;;;;9.25;4.85;;;;;;;;;;4907862;29;20070;-79
2020/12/20 13:27:11;;;;;;;10.50;5.40;;;;;;;;;;4895151;29;20044;-79
2020/12/20 13:29:42;;;;;;;11.18;5.55;;;;;;;;;;4903535;29;20127;-79
2020/12/20 13:32:09;;;;;;;10.65;5.60;;;;;;;;;;4911738;29;20072;-80
2020/12/20 13:34:45;;;;;;;9.38;5.22;;;;;;;;;;4913588;29;20052;-81
2020/12/20 13:37:23;;;;;;;7.88;5.00;;;;;;;;;;4912232;29;20071;-80
2020/12/20 13:39:51;;;;;;;10.17;5.30;;;;;;;;;;4913618;29;20055;-79
2020/12/20 13:42:31;;;;;;;9.90;5.40;;;;;;;;;;4949508;28;20051;-80
2020/12/20 13:44:59;;;;;;;11.55;5.15;;;;;;;;;;4955924;28;20137;-79
2020/12/20 13:47:29;;;;;;;10.35;5.35;;;;;;;;;;4957301;28;20134;-80
2020/12/20 13:50:03;;;;;;;8.18;4.57;;;;;;;;;;4969262;28;20046;-79
2020/12/20 13:52:41;;;;;;;8.60;4.95;;;;;;;;;;4957124;28;20050;-80
2020/12/20 13:55:10;;;;;;;7.90;4.60;;;;;;;;;;4973074;28;20051;-79
2020/12/20 13:57:42;;;;;;;10.27;5.50;;;;;;;;;;4959401;28;20102;-79
2020/12/20 14:00:12;;;;;;;10.05;5.20;;;;;;;;;;4974156;28;20043;-78
2020/12/20 14:02:42;;;;;;;10.63;5.43;;;;;;;;;;4939213;28;20499;-78
2020/12/20 14:05:22;;;;;;;11.02;5.22;;;;;;;;;;4972767;28;20149;-77
2020/12/20 14:08:09;;;;;;;14.43;5.20;;;;;;;;;;4967290;28;20093;-80
2020/12/20 14:10:35;;;;;;;7.95;4.90;;;;;;;;;;4986332;28;20158;-80
2020/12/20 14:13:02;;;;;;;9.55;5.13;;;;;;;;;;4960367;28;20051;-79
2020/12/20 14:15:28;;;;;;;9.73;5.40;;;;;;;;;;4952906;28;20038;-78
2020/12/20 14:17:54;;;;;;;7.75;4.40;;;;;;;;;;4969992;28;20054;-78
2020/12/20 14:20:21;;;;;;;8.57;5.15;;;;;;;;;;4951974;28;20054;-79
2020/12/20 14:22:48;;;;;;;10.00;5.43;;;;;;;;;;4970426;28;20046;-78
2020/12/20 14:25:15;;;;;;;9.57;4.95;;;;;;;;;;4970091;28;20043;-78
2020/12/20 14:27:44;;;;;;;7.47;4.70;;;;;;;;;;4969326;28;20047;-77
2020/12/20 14:30:16;;;;;;;9.98;4.65;;;;;;;;;;4962492;28;20048;-79
2020/12/20 14:32:47;;;;;;;8.60;5.13;;;;;;;;;;4964960;28;20043;-79
2020/12/20 14:35:13;;;;;;;8.05;4.90;;;;;;;;;;4962049;28;20078;-79
2020/12/20 14:37:40;;;;;;;8.85;5.10;;;;;;;;;;4964422;28;20047;-79
2020/12/20 14:40:06;;;;;;;8.18;5.13;;;;;;;;;;4978014;28;20043;-78
2020/12/20 14:42:32;;;;;;;11.18;5.05;;;;;;;;;;4979941;28;20077;-79
2020/12/20 14:44:58;;;;;;;9.35;5.07;;;;;;;;;;4963921;28;20390;-79
2020/12/20 14:47:24;;;;;;;9.98;5.47;;;;;;;;;;4961001;28;20052;-78
2020/12/20 14:49:51;;;;;;;10.20;4.70;;;;;;;;;;4977297;28;20093;-78
2020/12/20 14:52:18;;;;;;;9.93;5.30;;;;;;;;;;4976121;28;20038;-80
2020/12/20 14:54:44;;;;;;;11.00;5.07;;;;;;;;;;4960594;28;20134;-78
2020/12/20 14:57:10;;;;;;;9.13;5.10;;;;;;;;;;4962544;28;20105;-80
2020/12/20 14:59:36;;;;;;;9.82;5.43;;;;;;;;;;4981547;28;20354;-79
2020/12/20 15:02:03;;;;;;;9.57;5.13;;;;;;;;;;4977985;28;20051;-79
2020/12/20 15:04:30;;;;;;;14.27;6.55;;;;;;;;;;4980900;28;20047;-80
2020/12/20 15:06:56;;;;;;;9.98;5.75;;;;;;;;;;4964073;28;20065;-81
2020/12/20 15:09:23;;;;;;;10.48;4.97;;;;;;;;;;4979832;28;20422;-79
2020/12/20 15:11:50;;;;;;;9.27;5.22;;;;;;;;;;4980528;28;20049;-78
2020/12/20 15:14:16;;;;;;;11.32;5.80;;;;;;;;;;4963005;28;20201;-81
2020/12/20 15:16:42;;;;;;;9.32;5.60;;;;;;;;;;4987046;28;20506;-79
2020/12/20 15:19:08;;;;;;;8.98;5.40;;;;;;;;;;4979306;28;20418;-80
2020/12/20 15:21:39;;;;;;;9.65;5.68;;;;;;;;;;4979642;28;20569;-80
2020/12/20 15:24:05;;;;;;;10.73;5.60;;;;;;;;;;4980517;28;20039;-79
2020/12/20 15:26:31;;;;;;;7.97;4.97;;;;;;;;;;4979898;28;20494;-79
2020/12/20 15:28:57;;;;;;;9.70;5.15;;;;;;;;;;4979422;28;20042;-80
2020/12/20 15:31:23;;;;;;;10.35;6.28;;;;;;;;;;4995810;28;20087;-80
2020/12/20 15:33:50;;;;;;;9.70;5.45;;;;;;;;;;4981575;28;20046;-81
2020/12/20 15:36:16;;;;;;;17.27;7.35;;;;;;;;;;4994873;28;20046;-79
2020/12/20 15:38:43;;;;;;;9.27;5.22;;;;;;;;;;4978233;28;20450;-78
2020/12/20 15:41:10;;;;;;;10.75;5.70;;;;;;;;;;4977262;28;20503;-78
2020/12/20 15:43:38;;;;;;;9.23;5.47;;;;;;;;;;4976154;28;20043;-77
2020/12/20 15:46:06;;;;;;;9.23;5.40;;;;;;;;;;4972910;28;20045;-78
2020/12/20 15:48:32;;;;;;;9.93;5.07;;;;;;;;;;4976575;28;20046;-80
2020/12/20 15:50:58;;;;;;;10.02;5.50;;;;;;;;;;4959479;28;20046;-79
2020/12/20 15:53:24;;;;;;;12.68;5.90;;;;;;;;;;4975604;28;20098;-78
2020/12/20 15:55:50;;;;;;;9.98;5.80;;;;;;;;;;4960064;28;20042;-77
2020/12/20 15:58:32;;;;;;;10.30;5.55;;;;;;;;;;4963170;28;20050;-79
2020/12/20 16:00:58;;;;;;;10.18;5.88;;;;;;;;;;4961035;28;20051;-79
2020/12/20 16:03:24;;;;;;;11.30;6.03;;;;;;;;;;4978350;28;20202;-79
2020/12/20 16:05:52;;;;;;;11.68;7.00;;;;;;;;;;4979712;28;20060;-79
2020/12/20 16:08:19;;;;;;;11.15;5.97;;;;;;;;;;4976535;28;20554;-80
2020/12/20 16:10:45;;;;;;;10.35;5.80;;;;;;;;;;4959632;28;20043;-82
2020/12/20 16:13:11;;;;;;;11.95;5.68;;;;;;;;;;4977697;28;20049;-78
2020/12/20 16:15:39;;;;;;;9.95;5.72;;;;;;;;;;4979352;28;20043;-80
2020/12/20 16:18:05;;;;;;;9.93;5.68;;;;;;;;;;4978634;28;20047;-79
2020/12/20 16:20:32;;;;;;;12.32;5.55;;;;;;;;;;4978734;28;20050;-79
2020/12/20 16:22:58;;;;;;;12.13;5.88;;;;;;;;;;4978413;28;20043;-79
2020/12/20 16:25:24;;;;;;;10.10;5.70;;;;;;;;;;4965691;28;20569;-79
2020/12/20 16:27:51;;;;;;;10.10;5.25;;;;;;;;;;4967801;28;20305;-82
2020/12/20 16:30:17;;;;;;;10.15;5.38;;;;;;;;;;4968933;28;20053;-80
2020/12/20 16:32:44;;;;;;;10.15;6.00;;;;;;;;;;4966068;28;20561;-78
2020/12/20 16:35:21;;;;;;;9.07;5.20;;;;;;;;;;4977137;28;20043;-80
2020/12/20 16:37:49;;;;;;;14.50;6.20;;;;;;;;;;4973159;28;20035;-80
2020/12/20 16:40:15;;;;;;;10.60;5.90;;;;;;;;;;4962544;28;20125;-78
2020/12/20 16:42:41;;;;;;;11.25;5.85;;;;;;;;;;4959034;28;20050;-78
2020/12/20 16:45:08;;;;;;;12.60;6.00;;;;;;;;;;4968832;28;20134;-78
2020/12/20 16:47:36;;;;;;;11.07;5.80;;;;;;;;;;4957393;28;20074;-79
2020/12/20 16:50:04;;;;;;;11.90;6.00;;;;;;;;;;4989407;28;20039;-78
2020/12/20 16:52:31;;;;;;;11.77;6.63;;;;;;;;;;4975394;28;20463;-79
2020/12/20 16:54:57;;;;;;;12.02;6.30;;;;;;;;;;4974820;28;20039;-79
2020/12/20 16:57:23;;;;;;;10.93;6.47;;;;;;;;;;4975262;28;20054;-79
2020/12/20 16:59:49;;;;;;;10.93;6.03;;;;;;;;;;4973157;28;20074;-79
2020/12/20 17:02:35;;;;;;;13.00;6.45;;;;;;;;;;4974601;28;20050;-78
2020/12/20 17:05:21;;;;;;;10.52;6.05;;;;;;;;;;4973830;28;20087;-79